createdAt,value
2023-04-08T00:00:55.004Z,1.50
2023-04-08T00:03:22.984Z,3.40
2023-04-08T00:05:51.096Z,3.65
2023-04-08T00:08:19.097Z,0.57
2023-04-08T00:10:47.090Z,1.30
2023-04-08T00:13:14.945Z,2.05
2023-04-08T00:15:43.069Z,2.05
2023-04-08T00:18:12.485Z,0.63
2023-04-08T00:20:40.508Z,1.27
2023-04-08T00:23:08.420Z,2.13
2023-04-08T00:25:36.272Z,2.38
2023-04-08T00:28:04.201Z,1.15
2023-04-08T00:30:32.079Z,0.98
2023-04-08T00:33:00.044Z,0.65
2023-04-08T00:35:30.417Z,1.23
2023-04-08T00:37:58.396Z,1.23
2023-04-08T00:40:26.320Z,1.60
2023-04-08T00:43:01.996Z,2.03
2023-04-08T00:45:29.878Z,3.47
2023-04-08T00:47:57.995Z,1.02
2023-04-08T00:50:25.906Z,1.13
2023-04-08T00:52:55.022Z,1.88
2023-04-08T00:55:22.913Z,4.63
2023-04-08T00:57:50.765Z,1.88
2023-04-08T01:00:18.577Z,1.85
2023-04-08T01:02:52.612Z,4.13
2023-04-08T01:05:29.907Z,3.72
2023-04-08T01:08:03.043Z,1.85
2023-04-08T01:10:34.599Z,1.85
2023-04-08T01:13:06.256Z,3.70
2023-04-08T01:15:37.005Z,1.45
2023-04-08T01:18:08.315Z,1.05
2023-04-08T01:20:36.525Z,3.03
2023-04-08T01:23:14.253Z,2.00
2023-04-08T01:25:47.394Z,1.85
2023-04-08T01:28:18.884Z,1.75
2023-04-08T01:30:47.959Z,1.60
2023-04-08T01:33:18.805Z,2.60
2023-04-08T01:35:47.401Z,3.88
2023-04-08T01:38:19.172Z,1.58
2023-04-08T01:40:49.782Z,2.67
2023-04-08T01:43:19.154Z,3.15
2023-04-08T01:45:49.053Z,1.15
2023-04-08T01:48:17.437Z,2.00
2023-04-08T01:50:46.528Z,2.80
2023-04-08T01:53:15.026Z,2.17
2023-04-08T01:55:44.306Z,2.58
2023-04-08T01:58:21.276Z,1.27
2023-04-08T02:00:50.553Z,1.40
2023-04-08T02:03:21.307Z,2.40
2023-04-08T02:05:49.364Z,1.90
2023-04-08T02:08:17.158Z,2.80
2023-04-08T02:10:44.927Z,2.30
2023-04-08T02:13:12.755Z,1.63
2023-04-08T02:15:47.387Z,3.33
2023-04-08T02:18:18.071Z,4.68
2023-04-08T02:20:51.490Z,3.60
2023-04-08T02:23:22.662Z,4.28
2023-04-08T02:25:51.531Z,1.73
2023-04-08T02:28:20.751Z,2.97
2023-04-08T02:30:52.286Z,2.30
2023-04-08T02:33:22.482Z,7.80
2023-04-08T02:35:54.570Z,2.72
2023-04-08T02:38:24.237Z,4.35
2023-04-08T02:40:52.457Z,4.43
2023-04-08T02:43:20.208Z,1.63
2023-04-08T02:45:48.136Z,2.38
2023-04-08T02:48:17.801Z,2.03
2023-04-08T02:50:45.592Z,2.53
2023-04-08T02:53:13.470Z,3.70
2023-04-08T02:55:41.669Z,5.38
2023-04-08T02:58:09.476Z,1.60
2023-04-08T03:00:39.687Z,3.05
2023-04-08T03:03:07.717Z,1.20
2023-04-08T03:05:36.965Z,3.47
2023-04-08T03:08:06.732Z,1.30
2023-04-08T03:10:34.642Z,2.25
2023-04-08T03:13:02.391Z,5.00
2023-04-08T03:15:30.297Z,3.38
2023-04-08T03:17:58.181Z,4.78
2023-04-08T03:20:26.344Z,2.65
2023-04-08T03:22:55.448Z,23.30
2023-04-08T03:25:23.207Z,4.13
2023-04-08T03:27:51.042Z,3.92
2023-04-08T03:30:19.073Z,3.88
2023-04-08T03:32:46.935Z,2.55
2023-04-08T03:35:14.716Z,4.57
2023-04-08T03:37:42.502Z,2.10
2023-04-08T03:40:13.233Z,2.58
2023-04-08T03:42:41.236Z,2.33
2023-04-08T03:45:09.763Z,5.68
2023-04-08T03:47:37.604Z,2.78
2023-04-08T03:50:05.952Z,1.45
2023-04-08T03:52:33.646Z,5.32
2023-04-08T03:55:01.414Z,2.25
2023-04-08T03:57:30.629Z,4.50
2023-04-08T03:59:58.492Z,3.70
2023-04-08T04:02:26.342Z,5.25
2023-04-08T04:04:54.345Z,5.13
2023-04-08T04:07:22.289Z,5.47
2023-04-08T04:09:54.068Z,3.78
2023-04-08T04:12:21.832Z,6.20
2023-04-08T04:14:51.287Z,2.35
2023-04-08T04:17:19.129Z,5.90
2023-04-08T04:19:47.055Z,4.22
2023-04-08T04:22:15.003Z,6.45
2023-04-08T04:24:48.302Z,5.13
2023-04-08T04:27:17.580Z,5.28
2023-04-08T04:29:45.457Z,4.25
2023-04-08T04:32:14.562Z,8.07
2023-04-08T04:34:42.441Z,4.78
2023-04-08T04:37:10.947Z,8.50
2023-04-08T04:39:38.706Z,8.57
2023-04-08T04:42:06.688Z,9.38
2023-04-08T04:44:34.512Z,8.70
2023-04-08T04:47:02.509Z,7.68
2023-04-08T04:49:31.642Z,11.00
2023-04-08T04:51:59.401Z,12.70
2023-04-08T04:54:27.222Z,7.68
2023-04-08T04:56:55.081Z,8.30
2023-04-08T04:59:22.873Z,8.18
2023-04-08T05:01:50.722Z,10.15
2023-04-08T05:04:18.559Z,8.45
2023-04-08T05:06:47.739Z,18.77
2023-04-08T05:09:15.583Z,9.50
2023-04-08T05:11:43.546Z,5.75
2023-04-08T05:14:11.456Z,13.18
2023-04-08T05:16:39.681Z,8.63
2023-04-08T05:19:07.652Z,7.72
2023-04-08T05:21:35.756Z,8.32
2023-04-08T05:24:05.180Z,8.73
2023-04-08T05:26:33.106Z,6.85
2023-04-08T05:29:00.928Z,7.63
2023-04-08T05:31:29.634Z,7.78
2023-04-08T05:33:57.435Z,9.48
2023-04-08T05:36:26.338Z,12.70
2023-04-08T05:38:54.116Z,9.25
2023-04-08T05:41:23.190Z,7.57
2023-04-08T05:43:50.944Z,4.53
2023-04-08T05:46:18.764Z,7.60
2023-04-08T05:48:46.828Z,7.63
2023-04-08T05:51:15.450Z,6.78
2023-04-08T05:53:43.405Z,6.13
2023-04-08T05:56:11.361Z,9.23
2023-04-08T05:58:41.031Z,10.05
2023-04-08T06:01:08.799Z,8.98
2023-04-08T06:03:36.730Z,7.90
2023-04-08T06:06:04.907Z,8.00
2023-04-08T06:08:32.793Z,15.20
2023-04-08T06:11:00.785Z,10.63
2023-04-08T06:13:56.977Z,9.15
2023-04-08T06:16:24.770Z,10.05
2023-04-08T06:18:52.982Z,8.02
2023-04-08T06:21:21.622Z,6.88
2023-04-08T06:23:49.434Z,10.27
2023-04-08T06:26:18.038Z,12.00
2023-04-08T06:28:47.208Z,9.73
2023-04-08T06:31:14.926Z,10.02
2023-04-08T06:33:42.634Z,7.15
2023-04-08T06:36:11.200Z,9.63
2023-04-08T06:38:39.167Z,10.73
2023-04-08T06:41:07.607Z,8.07
2023-04-08T06:43:37.921Z,8.55
2023-04-08T06:46:07.644Z,6.30
2023-04-08T06:48:37.510Z,11.50
2023-04-08T06:51:05.833Z,7.45
2023-04-08T06:53:33.724Z,7.63
2023-04-08T06:56:01.909Z,8.38
2023-04-08T06:58:29.795Z,9.40
2023-04-08T07:00:57.764Z,10.18
2023-04-08T07:03:26.965Z,9.43
2023-04-08T07:05:55.160Z,7.97
2023-04-08T07:08:22.926Z,12.85
2023-04-08T07:10:50.673Z,10.20
2023-04-08T07:13:18.382Z,11.25
2023-04-08T07:15:46.094Z,9.75
2023-04-08T07:18:14.021Z,8.32
2023-04-08T07:20:43.156Z,9.93
2023-04-08T07:23:10.931Z,7.07
2023-04-08T07:25:38.699Z,8.95
2023-04-08T07:28:07.533Z,9.38
2023-04-08T07:30:35.291Z,6.28
2023-04-08T07:33:03.095Z,6.65
2023-04-08T07:35:31.904Z,10.27
2023-04-08T07:38:01.142Z,5.60
2023-04-08T07:40:29.804Z,7.57
2023-04-08T07:42:57.656Z,9.55
2023-04-08T07:45:25.487Z,5.28
2023-04-08T07:47:53.252Z,11.73
2023-04-08T07:50:21.427Z,13.18
2023-04-08T07:52:49.212Z,6.70
2023-04-08T07:55:18.539Z,5.88
2023-04-08T07:57:46.644Z,10.55
2023-04-08T08:00:20.812Z,9.15
2023-04-08T08:02:49.192Z,7.32
2023-04-08T08:05:17.172Z,8.68
2023-04-08T08:07:45.720Z,5.90
2023-04-08T08:10:13.459Z,3.95
2023-04-08T08:12:42.830Z,9.25
2023-04-08T08:15:11.694Z,6.70
2023-04-08T08:17:39.507Z,7.85
2023-04-08T08:20:08.670Z,8.30
2023-04-08T08:22:41.808Z,4.72
2023-04-08T08:25:19.693Z,8.60
2023-04-08T08:27:49.078Z,5.05
2023-04-08T08:30:18.485Z,8.70
2023-04-08T08:32:47.214Z,6.38
2023-04-08T08:35:15.242Z,8.55
2023-04-08T08:37:43.215Z,12.30
2023-04-08T08:40:12.115Z,7.32
2023-04-08T08:42:40.709Z,6.78
2023-04-08T08:45:11.009Z,5.93
2023-04-08T08:47:38.929Z,8.38
2023-04-08T08:50:07.808Z,8.18
2023-04-08T08:52:35.545Z,9.52
2023-04-08T08:55:13.049Z,6.72
2023-04-08T08:57:51.354Z,9.77
2023-04-08T09:00:20.644Z,8.23
2023-04-08T09:02:48.655Z,7.88
2023-04-08T09:05:16.732Z,11.43
2023-04-08T09:07:44.875Z,11.73
2023-04-08T09:10:12.790Z,12.95
2023-04-08T09:12:55.739Z,10.52
2023-04-08T09:15:24.944Z,9.95
2023-04-08T09:17:52.956Z,7.97
2023-04-08T09:20:20.763Z,10.18
2023-04-08T09:22:59.371Z,12.43
2023-04-08T09:25:28.214Z,13.02
2023-04-08T09:27:56.238Z,8.65
2023-04-08T09:30:27.794Z,6.90
2023-04-08T09:32:57.098Z,10.73
2023-04-08T09:35:26.047Z,9.70
2023-04-08T09:37:53.908Z,12.90
2023-04-08T09:40:21.851Z,11.85
2023-04-08T09:42:52.395Z,14.00
2023-04-08T09:45:20.858Z,12.05
2023-04-08T09:47:58.342Z,10.57
2023-04-08T09:50:32.293Z,9.15
2023-04-08T09:53:03.315Z,14.23
2023-04-08T09:55:35.794Z,10.63
2023-04-08T09:58:07.985Z,10.23
2023-04-08T10:00:41.149Z,11.38
2023-04-08T10:03:15.982Z,12.20
2023-04-08T10:05:44.880Z,16.55
2023-04-08T10:08:12.636Z,12.52
2023-04-08T10:10:41.701Z,7.25
2023-04-08T10:13:09.980Z,9.88
2023-04-08T10:15:40.832Z,9.98
2023-04-08T10:18:34.904Z,7.72
2023-04-08T10:21:03.525Z,10.48
2023-04-08T10:23:59.182Z,10.77
2023-04-08T10:26:38.176Z,10.68
2023-04-08T10:29:42.626Z,9.20
2023-04-08T10:32:13.902Z,17.13
2023-04-08T10:34:53.803Z,9.10
2023-04-08T10:37:21.492Z,10.07
2023-04-08T10:39:55.494Z,11.18
2023-04-08T10:42:28.757Z,9.98
2023-04-08T10:45:01.421Z,7.60
2023-04-08T10:47:29.193Z,8.63
2023-04-08T10:49:58.307Z,9.23
2023-04-08T10:52:27.506Z,8.88
2023-04-08T10:54:55.771Z,7.05
2023-04-08T10:57:26.963Z,6.90
2023-04-08T10:59:54.777Z,9.32
2023-04-08T11:02:22.631Z,8.80
2023-04-08T11:04:50.842Z,11.55
2023-04-08T11:07:22.687Z,15.75
2023-04-08T11:09:50.611Z,10.38
2023-04-08T11:12:19.134Z,10.82
2023-04-08T11:14:48.499Z,11.63
2023-04-08T11:17:17.807Z,7.95
2023-04-08T11:19:45.823Z,8.45
2023-04-08T11:22:14.474Z,10.45
2023-04-08T11:24:44.168Z,14.35
2023-04-08T11:27:12.123Z,12.00
2023-04-08T11:29:40.018Z,14.45
2023-04-08T11:32:08.920Z,11.65
2023-04-08T11:34:40.340Z,12.70
2023-04-08T11:37:08.074Z,12.05
2023-04-08T11:39:36.383Z,10.27
2023-04-08T11:42:05.517Z,11.93
2023-04-08T11:44:33.490Z,8.43
2023-04-08T11:47:10.344Z,7.38
2023-04-08T11:49:52.852Z,10.18
2023-04-08T11:52:38.896Z,13.52
2023-04-08T11:55:07.606Z,24.13
2023-04-08T11:57:37.652Z,15.15
2023-04-08T12:00:06.910Z,6.13
2023-04-08T12:02:38.598Z,13.07
2023-04-08T12:05:07.691Z,14.52
2023-04-08T12:07:35.597Z,13.73
2023-04-08T12:10:03.344Z,9.88
2023-04-08T12:12:31.120Z,7.05
2023-04-08T12:15:00.266Z,9.82
2023-04-08T12:17:28.145Z,12.32
2023-04-08T12:19:56.256Z,9.55
2023-04-08T12:22:26.429Z,10.43
2023-04-08T12:24:54.188Z,12.07
2023-04-08T12:27:21.911Z,9.02
2023-04-08T12:29:53.318Z,7.70
2023-04-08T12:32:22.980Z,12.60
2023-04-08T12:34:52.917Z,8.20
2023-04-08T12:37:23.747Z,7.28
2023-04-08T12:39:51.587Z,7.45
2023-04-08T12:42:19.353Z,5.15
2023-04-08T12:44:47.219Z,11.13
2023-04-08T12:47:15.064Z,8.73
2023-04-08T12:49:49.873Z,7.55
2023-04-08T12:52:21.002Z,5.85
2023-04-08T12:54:48.834Z,7.78
2023-04-08T12:57:19.483Z,8.77
2023-04-08T12:59:47.670Z,14.50
2023-04-08T13:02:15.584Z,4.95
2023-04-08T13:04:44.839Z,7.32
2023-04-08T13:07:12.583Z,7.57
2023-04-08T13:09:40.627Z,8.57
2023-04-08T13:12:08.745Z,13.77
2023-04-08T13:14:39.514Z,9.32
2023-04-08T13:17:07.326Z,9.02
2023-04-08T13:19:38.013Z,5.82
2023-04-08T13:22:07.184Z,8.70
2023-04-08T13:24:34.995Z,9.75
2023-04-08T13:27:03.540Z,8.60
2023-04-08T13:29:31.353Z,6.80
2023-04-08T13:31:59.258Z,8.57
2023-04-08T13:34:27.064Z,11.73
2023-04-08T13:36:54.821Z,8.55
2023-04-08T13:39:24.028Z,11.10
2023-04-08T13:41:52.314Z,17.67
2023-04-08T13:44:20.139Z,13.23
2023-04-08T13:46:47.980Z,10.43
2023-04-08T13:49:16.180Z,7.88
2023-04-08T13:51:46.981Z,7.07
2023-04-08T13:54:14.783Z,9.27
2023-04-08T13:56:43.877Z,6.25
2023-04-08T13:59:11.634Z,10.60
2023-04-08T14:01:40.599Z,9.38
2023-04-08T14:04:08.477Z,9.95
2023-04-08T14:06:36.547Z,13.23
2023-04-08T14:09:04.457Z,9.88
2023-04-08T14:11:32.236Z,17.58
2023-04-08T14:14:01.455Z,7.22
2023-04-08T14:16:30.986Z,14.35
2023-04-08T14:18:58.944Z,6.80
2023-04-08T14:21:26.862Z,14.60
2023-04-08T14:23:54.737Z,4.25
2023-04-08T14:26:22.648Z,4.40
2023-04-08T14:28:50.933Z,5.60
2023-04-08T14:31:20.276Z,5.47
2023-04-08T14:33:48.138Z,5.22
2023-04-08T14:36:16.061Z,17.38
2023-04-08T14:38:43.865Z,8.73
2023-04-08T14:41:11.613Z,10.60
2023-04-08T14:43:39.420Z,7.07
2023-04-08T14:46:07.401Z,6.55
2023-04-08T14:48:36.477Z,12.68
2023-04-08T14:51:04.334Z,9.15
2023-04-08T14:53:32.078Z,8.63
2023-04-08T14:55:59.813Z,6.65
2023-04-08T14:58:27.484Z,6.18
2023-04-08T15:00:55.709Z,6.57
2023-04-08T15:03:23.794Z,10.15
2023-04-08T15:06:01.235Z,11.05
2023-04-08T15:08:29.168Z,9.63
2023-04-08T15:10:56.971Z,12.15
2023-04-08T15:13:24.829Z,10.38
2023-04-08T15:15:52.804Z,12.18
2023-04-08T15:18:20.864Z,7.88
2023-04-08T15:20:48.615Z,10.13
2023-04-08T15:23:18.016Z,12.23
2023-04-08T15:25:46.289Z,8.13
2023-04-08T15:28:14.146Z,12.30
2023-04-08T15:30:42.126Z,8.90
2023-04-08T15:33:10.089Z,10.32
2023-04-08T15:35:38.931Z,10.43
2023-04-08T15:38:07.748Z,13.35
2023-04-08T15:40:38.934Z,9.93
2023-04-08T15:43:06.705Z,8.23
2023-04-08T15:45:34.500Z,16.08
2023-04-08T15:48:02.355Z,11.95
2023-04-08T15:50:31.348Z,10.63
2023-04-08T15:52:59.294Z,10.55
2023-04-08T15:55:27.094Z,17.92
2023-04-08T15:57:57.133Z,13.10
2023-04-08T16:00:25.057Z,7.80
2023-04-08T16:02:53.135Z,9.25
2023-04-08T16:05:21.463Z,7.60
2023-04-08T16:07:49.506Z,16.80
2023-04-08T16:10:17.505Z,6.13
2023-04-08T16:12:46.169Z,11.95
2023-04-08T16:15:15.370Z,11.10
2023-04-08T16:17:43.194Z,11.82
2023-04-08T16:20:12.260Z,10.50
2023-04-08T16:22:40.028Z,11.52
2023-04-08T16:25:08.697Z,9.15
2023-04-08T16:27:36.990Z,9.00
2023-04-08T16:30:05.467Z,14.10
2023-04-08T16:32:34.623Z,8.60
2023-04-08T16:35:02.467Z,13.05
2023-04-08T16:37:30.460Z,16.48
2023-04-08T16:39:58.453Z,10.80
2023-04-08T16:42:26.570Z,13.18
2023-04-08T16:44:57.112Z,16.02
2023-04-08T16:47:25.115Z,9.63
2023-04-08T16:49:54.613Z,12.07
2023-04-08T16:52:23.261Z,15.00
2023-04-08T16:54:52.255Z,14.02
2023-04-08T16:57:20.006Z,13.57
2023-04-08T16:59:48.065Z,8.43
2023-04-08T17:02:16.097Z,10.75
2023-04-08T17:04:44.021Z,8.32
2023-04-08T17:07:14.555Z,19.63
2023-04-08T17:09:42.630Z,20.92
2023-04-08T17:12:10.435Z,23.50
2023-04-08T17:14:38.266Z,19.02
2023-04-08T17:17:06.121Z,16.58
2023-04-08T17:19:33.910Z,15.00
2023-04-08T17:22:03.680Z,17.30
2023-04-08T17:24:33.015Z,12.65
2023-04-08T17:27:01.078Z,10.05
2023-04-08T17:29:28.867Z,12.43
2023-04-08T17:31:56.692Z,8.35
2023-04-08T17:34:24.858Z,12.55
2023-04-08T17:36:52.788Z,10.15
2023-04-08T17:39:20.608Z,9.93
2023-04-08T17:41:49.694Z,12.73
2023-04-08T17:44:17.613Z,10.15
2023-04-08T17:46:45.536Z,13.20
2023-04-08T17:49:14.198Z,10.30
2023-04-08T17:51:42.188Z,8.90
2023-04-08T17:54:10.079Z,10.75
2023-04-08T17:56:37.843Z,5.43
2023-04-08T17:59:07.277Z,7.85
2023-04-08T18:01:37.167Z,8.38
2023-04-08T18:04:06.725Z,9.73
2023-04-08T18:06:34.653Z,6.57
2023-04-08T18:09:06.215Z,11.27
2023-04-08T18:11:34.007Z,10.60
2023-04-08T18:14:01.838Z,8.18
2023-04-08T18:16:31.192Z,8.18
2023-04-08T18:18:59.232Z,7.22
2023-04-08T18:21:27.217Z,9.95
2023-04-08T18:23:56.396Z,7.22
2023-04-08T18:26:26.992Z,10.43
2023-04-08T18:28:55.201Z,10.82
2023-04-08T18:31:26.682Z,10.13
2023-04-08T18:33:55.946Z,13.35
2023-04-08T18:36:23.744Z,12.23
2023-04-08T18:38:51.868Z,12.40
2023-04-08T18:41:23.240Z,5.45
2023-04-08T18:43:51.175Z,10.18
2023-04-08T18:46:20.228Z,9.85
2023-04-08T18:48:49.128Z,13.10
2023-04-08T18:51:27.195Z,6.95
2023-04-08T18:53:55.219Z,10.73
2023-04-08T18:56:23.034Z,3.83
2023-04-08T18:58:54.523Z,9.60
2023-04-08T19:01:24.540Z,7.60
2023-04-08T19:03:52.981Z,11.38
2023-04-08T19:06:26.128Z,13.05
2023-04-08T19:08:53.950Z,6.32
2023-04-08T19:11:31.852Z,9.32
2023-04-08T19:13:59.961Z,7.57
2023-04-08T19:16:27.748Z,10.35
2023-04-08T19:18:57.226Z,12.27
2023-04-08T19:21:30.013Z,9.63
2023-04-08T19:24:00.193Z,7.30
2023-04-08T19:26:28.132Z,11.55
2023-04-08T19:28:58.067Z,5.03
2023-04-08T19:31:26.030Z,10.52
2023-04-08T19:33:54.016Z,9.68
2023-04-08T19:36:21.988Z,12.02
2023-04-08T19:38:51.105Z,10.27
2023-04-08T19:41:19.091Z,8.10
2023-04-08T19:43:47.663Z,8.95
2023-04-08T19:46:15.922Z,11.02
2023-04-08T19:48:44.375Z,9.73
2023-04-08T19:51:17.006Z,14.27
2023-04-08T19:53:44.939Z,8.95
2023-04-08T19:56:14.611Z,11.30
2023-04-08T19:58:42.533Z,13.55
2023-04-08T20:01:10.374Z,10.18
2023-04-08T20:03:38.327Z,12.77
2023-04-08T20:06:06.080Z,11.15
2023-04-08T20:08:34.600Z,10.88
2023-04-08T20:11:04.615Z,13.65
2023-04-08T20:13:34.109Z,10.95
2023-04-08T20:16:02.825Z,15.90
2023-04-08T20:18:30.710Z,15.52
2023-04-08T20:20:59.560Z,9.38
2023-04-08T20:23:28.470Z,22.02
2023-04-08T20:25:56.617Z,21.60
2023-04-08T20:28:25.650Z,26.33
2023-04-08T20:30:54.901Z,36.67
2023-04-08T20:33:22.650Z,31.58
2023-04-08T20:35:53.127Z,28.50
2023-04-08T20:38:21.624Z,27.92
2023-04-08T20:40:50.468Z,18.13
2023-04-08T20:43:18.278Z,19.83
2023-04-08T20:45:46.124Z,14.20
2023-04-08T20:48:16.542Z,24.17
2023-04-08T20:50:44.974Z,14.38
2023-04-08T20:53:12.831Z,20.02
2023-04-08T20:55:40.644Z,16.17
2023-04-08T20:58:08.434Z,13.80
2023-04-08T21:00:36.177Z,14.65
2023-04-08T21:03:04.268Z,18.38
2023-04-08T21:05:37.902Z,15.98
2023-04-08T21:08:07.832Z,17.30
2023-04-08T21:10:35.762Z,8.77
2023-04-08T21:13:03.946Z,16.00
2023-04-08T21:15:33.023Z,12.43
2023-04-08T21:18:01.250Z,11.35
2023-04-08T21:20:29.138Z,7.70
2023-04-08T21:22:59.472Z,15.43
2023-04-08T21:25:31.058Z,8.10
2023-04-08T21:28:05.049Z,10.77
2023-04-08T21:30:33.056Z,12.23
2023-04-08T21:33:01.758Z,19.05
2023-04-08T21:35:31.843Z,16.33
2023-04-08T21:38:03.337Z,16.67
2023-04-08T21:40:31.593Z,15.50
2023-04-08T21:43:00.689Z,14.30
2023-04-08T21:45:28.873Z,13.23
2023-04-08T21:47:58.602Z,16.67
2023-04-08T21:50:26.518Z,10.50
2023-04-08T21:52:54.426Z,10.52
2023-04-08T21:55:23.770Z,13.20
2023-04-08T21:57:51.607Z,19.25
2023-04-08T22:00:19.405Z,12.60
2023-04-08T22:02:47.530Z,16.75
2023-04-08T22:05:15.550Z,19.45
2023-04-08T22:07:43.526Z,18.77
2023-04-08T22:10:12.495Z,25.25
2023-04-08T22:12:41.662Z,19.50
2023-04-08T22:15:11.135Z,19.27
2023-04-08T22:17:39.201Z,18.13
2023-04-08T22:20:07.932Z,26.50
2023-04-08T22:22:35.722Z,32.80
2023-04-08T22:25:03.558Z,23.80
2023-04-08T22:27:31.409Z,22.52
2023-04-08T22:30:01.168Z,19.40
2023-04-08T22:32:29.235Z,15.70
2023-04-08T22:34:57.154Z,26.15
2023-04-08T22:37:25.565Z,19.40
2023-04-08T22:39:53.650Z,14.45
2023-04-08T22:42:21.785Z,21.83
2023-04-08T22:44:49.874Z,16.95
2023-04-08T22:47:19.318Z,17.42
2023-04-08T22:49:47.299Z,20.95
2023-04-08T22:52:15.671Z,18.00
2023-04-08T22:54:44.073Z,15.75
2023-04-08T22:57:12.220Z,18.60
2023-04-08T22:59:40.595Z,14.73
2023-04-08T23:02:08.665Z,20.52
2023-04-08T23:04:38.434Z,16.98
2023-04-08T23:07:06.248Z,21.00
2023-04-08T23:09:34.282Z,21.77
2023-04-08T23:12:02.720Z,21.50
2023-04-08T23:14:30.693Z,19.15
2023-04-08T23:16:58.972Z,20.65
2023-04-08T23:19:27.269Z,21.85
2023-04-08T23:21:57.545Z,17.33
2023-04-08T23:24:25.484Z,21.63
2023-04-08T23:26:53.488Z,21.75
2023-04-08T23:29:21.784Z,18.10
2023-04-08T23:31:49.654Z,24.92
2023-04-08T23:34:17.950Z,19.27
2023-04-08T23:36:46.035Z,19.80
2023-04-08T23:39:15.818Z,22.67
2023-04-08T23:41:43.891Z,26.83
2023-04-08T23:44:14.803Z,18.70
2023-04-08T23:46:42.942Z,34.20
2023-04-08T23:49:11.635Z,28.67
2023-04-08T23:51:40.187Z,51.88
2023-04-08T23:54:08.123Z,28.85
2023-04-08T23:56:37.335Z,30.35
2023-04-08T23:59:05.537Z,31.00
